Terminal Aerodrome Forecast
Issued by NWS Raleigh/Durham, NC

Home | Current Version | Previous Version | Text Only | Print | Product List | Glossary On
Versions: 1 2 3 4 5 6 7 8 9 10 11 12 13 14 15 16
000
FTUS42 KRAH 231740
TAFFAY
TAF
KFAY 231740Z 2318/2418 16015G25KT P6SM BKN040
     FM232200 17015G25KT P6SM BKN050
      TEMPO 2401/2405 VRB20G45KT 1SM TSRA OVC005CB
     FM240500 19010KT P6SM BKN080
     FM241100 00000KT 1 1/2SM BR BKN002
     FM241400 24005KT P6SM SKC=

USA.gov is the U.S. government's official web portal to all federal, state and local government web resources and services.